createdAt,value
2024-02-20T00:03:51.030Z,71.92
2024-02-20T00:08:57.576Z,72.08
2024-02-20T00:14:02.919Z,72.14
2024-02-20T00:19:08.490Z,72.09
2024-02-20T00:24:14.646Z,72.16
2024-02-20T00:29:19.923Z,72.16
2024-02-20T00:34:26.185Z,72.32
2024-02-20T00:39:33.531Z,72.40
2024-02-20T00:44:39.665Z,72.56
2024-02-20T00:49:45.118Z,72.63
2024-02-20T00:54:50.629Z,72.62
2024-02-20T00:59:56.806Z,72.76
2024-02-20T01:05:03.755Z,72.87
2024-02-20T01:10:10.053Z,73.20
2024-02-20T01:15:16.377Z,73.32
2024-02-20T01:20:22.927Z,73.29
2024-02-20T01:25:30.778Z,73.43
2024-02-20T01:30:37.176Z,73.52
2024-02-20T01:35:44.402Z,73.71
2024-02-20T01:40:49.727Z,73.57
2024-02-20T01:45:56.037Z,73.80
2024-02-20T01:51:02.761Z,73.70
2024-02-20T01:56:11.010Z,73.77
2024-02-20T02:01:17.475Z,73.90
2024-02-20T02:06:31.012Z,73.97
2024-02-20T02:11:41.347Z,73.83
2024-02-20T02:16:49.057Z,74.03
2024-02-20T02:21:55.459Z,74.08
2024-02-20T02:27:01.830Z,74.19
2024-02-20T02:32:08.815Z,74.01
2024-02-20T02:37:15.117Z,74.03
2024-02-20T02:42:22.605Z,74.05
2024-02-20T02:47:27.928Z,74.07
2024-02-20T02:52:34.524Z,74.08
2024-02-20T02:57:41.311Z,74.30
2024-02-20T03:02:49.147Z,74.20
2024-02-20T03:07:54.494Z,74.06
2024-02-20T03:13:00.265Z,74.28
2024-02-20T03:18:08.252Z,74.31
2024-02-20T03:23:14.878Z,74.16
2024-02-20T03:28:21.016Z,74.18
2024-02-20T03:33:28.250Z,74.08
2024-02-20T03:38:34.073Z,74.21
2024-02-20T03:43:39.408Z,74.24
2024-02-20T03:48:46.049Z,74.33
2024-02-20T03:53:52.720Z,74.26
2024-02-20T03:58:59.329Z,74.34
2024-02-20T04:04:06.836Z,74.42
2024-02-20T04:09:13.256Z,74.45
2024-02-20T04:14:19.597Z,74.55
2024-02-20T04:19:26.108Z,74.43
2024-02-20T04:24:33.033Z,74.41
2024-02-20T04:29:39.334Z,74.50
2024-02-20T04:34:44.733Z,74.70
2024-02-20T04:39:50.140Z,74.57
2024-02-20T04:44:56.497Z,74.69
2024-02-20T04:50:02.861Z,74.75
2024-02-20T04:55:09.671Z,74.74
2024-02-20T05:00:18.195Z,74.75
2024-02-20T05:05:24.545Z,74.87
2024-02-20T05:10:30.026Z,74.82
2024-02-20T05:15:36.858Z,74.78
2024-02-20T05:20:43.611Z,74.70
2024-02-20T05:25:49.061Z,74.68
2024-02-20T05:30:55.342Z,74.76
2024-02-20T05:36:01.589Z,74.56
2024-02-20T05:41:08.240Z,74.76
2024-02-20T05:46:14.756Z,74.68
2024-02-20T05:51:21.097Z,74.54
2024-02-20T05:56:27.532Z,74.68
2024-02-20T06:01:33.818Z,74.78
2024-02-20T06:06:39.588Z,74.67
2024-02-20T06:11:46.017Z,74.86
2024-02-20T06:16:52.493Z,74.78
2024-02-20T06:21:58.801Z,74.84
2024-02-20T06:27:08.624Z,74.84
2024-02-20T06:32:13.904Z,74.80
2024-02-20T06:37:20.446Z,74.72
2024-02-20T06:42:28.502Z,74.75
2024-02-20T06:47:34.796Z,74.83
2024-02-20T06:52:42.356Z,74.84
2024-02-20T06:57:55.749Z,74.54
2024-02-20T07:03:01.277Z,74.50
2024-02-20T07:08:07.446Z,74.52
2024-02-20T07:13:14.055Z,74.41
2024-02-20T07:18:20.763Z,74.63
2024-02-20T07:23:27.151Z,74.41
2024-02-20T07:28:34.031Z,74.49
2024-02-20T07:33:42.063Z,74.39
2024-02-20T07:38:51.005Z,74.37
2024-02-20T07:43:57.487Z,74.56
2024-02-20T07:49:03.041Z,74.59
2024-02-20T07:54:08.679Z,74.50
2024-02-20T07:59:14.717Z,74.68
2024-02-20T08:04:21.511Z,74.64
2024-02-20T08:09:28.305Z,74.64
2024-02-20T08:14:33.975Z,74.88
2024-02-20T08:19:40.922Z,74.75
2024-02-20T08:24:47.439Z,74.95
2024-02-20T08:29:59.904Z,74.60
2024-02-20T08:35:07.623Z,74.65
2024-02-20T08:40:13.893Z,74.61
2024-02-20T08:45:20.783Z,74.61
2024-02-20T08:50:26.357Z,74.82
2024-02-20T08:55:32.782Z,74.96
2024-02-20T09:00:39.101Z,74.54
2024-02-20T09:05:44.570Z,74.82
2024-02-20T09:10:51.135Z,74.63
2024-02-20T09:15:57.678Z,74.78
2024-02-20T09:21:03.689Z,74.57
2024-02-20T09:26:13.580Z,74.62
2024-02-20T09:31:19.936Z,74.54
2024-02-20T09:36:25.238Z,74.45
2024-02-20T09:41:32.881Z,74.54
2024-02-20T09:46:42.654Z,74.32
2024-02-20T09:51:49.199Z,74.28
2024-02-20T09:56:57.274Z,74.39
2024-02-20T10:02:05.287Z,74.48
2024-02-20T10:07:12.158Z,74.14
2024-02-20T10:12:25.526Z,74.44
2024-02-20T10:17:33.132Z,74.17
2024-02-20T10:22:43.963Z,74.01
2024-02-20T10:27:51.754Z,74.24
2024-02-20T10:32:58.608Z,74.01
2024-02-20T10:38:06.825Z,74.00
2024-02-20T10:43:14.229Z,73.89
2024-02-20T10:48:25.983Z,73.88
2024-02-20T10:53:32.991Z,73.88
2024-02-20T10:58:41.725Z,74.15
2024-02-20T11:03:59.162Z,73.99
2024-02-20T11:09:10.381Z,73.97
2024-02-20T11:14:26.240Z,74.14
2024-02-20T11:19:34.479Z,74.11
2024-02-20T11:24:41.265Z,73.88
2024-02-20T11:29:46.932Z,73.80
2024-02-20T11:34:52.334Z,73.83
2024-02-20T11:40:01.960Z,73.97
2024-02-20T11:45:17.113Z,73.77
2024-02-20T11:50:23.736Z,73.95
2024-02-20T11:55:30.150Z,73.71
2024-02-20T12:00:37.100Z,73.60
2024-02-20T12:05:44.396Z,73.77
2024-02-20T12:10:51.197Z,73.79
2024-02-20T12:15:57.722Z,73.70
2024-02-20T12:21:11.279Z,73.63
2024-02-20T12:26:21.539Z,73.50
2024-02-20T12:31:30.649Z,73.65
2024-02-20T12:36:40.097Z,73.56
2024-02-20T12:41:46.683Z,73.60
2024-02-20T12:46:53.212Z,73.70
2024-02-20T12:52:00.224Z,73.59
2024-02-20T12:57:06.957Z,73.70
2024-02-20T13:02:13.311Z,73.56
2024-02-20T13:07:19.166Z,73.53
2024-02-20T13:12:27.143Z,73.52
2024-02-20T13:17:32.741Z,73.44
2024-02-20T13:22:40.084Z,73.41
2024-02-20T13:27:47.742Z,73.33
2024-02-20T13:32:54.425Z,73.24
2024-02-20T13:38:00.221Z,73.31
2024-02-20T13:43:11.604Z,73.19
2024-02-20T13:48:18.789Z,73.29
2024-02-20T13:53:25.184Z,73.26
2024-02-20T13:58:30.825Z,72.98
2024-02-20T14:03:37.271Z,72.90
2024-02-20T14:08:47.458Z,72.95
2024-02-20T14:13:52.837Z,72.98
2024-02-20T14:18:59.238Z,72.89
2024-02-20T14:24:05.769Z,72.86
2024-02-20T14:29:12.406Z,72.62
2024-02-20T14:34:23.271Z,72.58
2024-02-20T14:39:28.753Z,72.55
2024-02-20T14:44:36.488Z,72.59
2024-02-20T14:49:42.678Z,72.57
2024-02-20T14:54:48.857Z,72.36
2024-02-20T14:59:54.168Z,72.46
2024-02-20T15:05:00.059Z,72.43
2024-02-20T15:10:08.418Z,72.32
2024-02-20T15:15:18.657Z,72.45
2024-02-20T15:20:26.433Z,72.37
2024-02-20T15:25:32.930Z,72.15
2024-02-20T15:30:39.058Z,72.20
2024-02-20T15:35:45.155Z,72.32
2024-02-20T15:40:53.156Z,72.17
2024-02-20T15:46:00.276Z,72.08
2024-02-20T15:51:11.172Z,72.24
2024-02-20T15:56:17.681Z,72.04
2024-02-20T16:01:26.198Z,71.98
2024-02-20T16:06:35.050Z,72.18
2024-02-20T16:11:40.927Z,72.14
2024-02-20T16:16:47.164Z,72.21
2024-02-20T16:21:53.708Z,72.37
2024-02-20T16:27:00.789Z,72.27
2024-02-20T16:32:07.133Z,72.11
2024-02-20T16:37:14.023Z,72.27
2024-02-20T16:42:20.925Z,72.16
2024-02-20T16:47:27.409Z,72.13
2024-02-20T16:52:33.791Z,72.27
2024-02-20T16:57:39.562Z,72.09
2024-02-20T17:02:46.421Z,72.15
2024-02-20T17:07:53.425Z,72.30
2024-02-20T17:12:59.831Z,72.16
2024-02-20T17:18:06.480Z,72.31
2024-02-20T17:23:16.264Z,72.22
2024-02-20T17:28:23.265Z,72.42
2024-02-20T17:33:28.952Z,72.44
2024-02-20T17:38:35.366Z,72.46
2024-02-20T17:43:41.091Z,72.36
2024-02-20T17:48:48.995Z,72.60
2024-02-20T17:53:55.556Z,72.51
2024-02-20T17:59:01.921Z,72.56
2024-02-20T18:04:08.839Z,72.49
2024-02-20T18:09:15.688Z,72.50
2024-02-20T18:14:22.544Z,72.43
2024-02-20T18:19:29.633Z,72.47
2024-02-20T18:24:36.105Z,72.36
2024-02-20T18:29:41.792Z,72.41
2024-02-20T18:34:47.902Z,72.61
2024-02-20T18:39:57.550Z,72.32
2024-02-20T18:45:04.384Z,72.52
2024-02-20T18:50:11.620Z,72.53
2024-02-20T18:55:19.355Z,72.37
2024-02-20T19:00:26.317Z,72.40
2024-02-20T19:05:31.751Z,72.57
2024-02-20T19:10:38.850Z,72.43
2024-02-20T19:15:44.248Z,72.36
2024-02-20T19:20:50.078Z,72.52
2024-02-20T19:25:55.495Z,72.63
2024-02-20T19:31:00.861Z,72.58
2024-02-20T19:36:07.819Z,72.61
2024-02-20T19:41:14.785Z,72.61
2024-02-20T19:46:22.077Z,72.72
2024-02-20T19:51:28.726Z,72.61
2024-02-20T19:56:40.134Z,72.62
2024-02-20T20:01:46.588Z,72.61
2024-02-20T20:06:52.957Z,72.67
2024-02-20T20:11:58.363Z,72.73
2024-02-20T20:17:05.948Z,72.76
2024-02-20T20:22:11.733Z,72.76
2024-02-20T20:27:19.192Z,72.89
2024-02-20T20:32:26.174Z,72.83
2024-02-20T20:37:32.841Z,72.77
2024-02-20T20:42:39.444Z,72.85
2024-02-20T20:47:46.708Z,72.99
2024-02-20T20:52:53.109Z,73.02
2024-02-20T20:57:59.751Z,72.96
2024-02-20T21:03:07.807Z,73.05
2024-02-20T21:08:14.543Z,73.06
2024-02-20T21:13:21.106Z,72.81
2024-02-20T21:18:28.099Z,72.83
2024-02-20T21:23:34.531Z,73.00
2024-02-20T21:28:41.034Z,72.90
2024-02-20T21:33:48.745Z,72.97
2024-02-20T21:38:54.767Z,72.88
2024-02-20T21:44:01.657Z,73.01
2024-02-20T21:49:07.154Z,72.98
2024-02-20T21:54:12.647Z,72.92
2024-02-20T21:59:19.605Z,72.99
2024-02-20T22:04:26.350Z,72.96
2024-02-20T22:09:33.827Z,73.12
2024-02-20T22:14:40.214Z,73.17
2024-02-20T22:19:47.196Z,72.90
2024-02-20T22:24:53.704Z,72.96
2024-02-20T22:30:00.004Z,72.99
2024-02-20T22:35:05.601Z,73.15
2024-02-20T22:40:13.407Z,73.10
2024-02-20T22:45:21.055Z,73.05
2024-02-20T22:50:27.670Z,73.09
2024-02-20T22:55:34.644Z,73.04
2024-02-20T23:00:40.052Z,73.15
2024-02-20T23:05:46.819Z,73.24
2024-02-20T23:10:53.310Z,73.20
2024-02-20T23:15:59.974Z,73.08
2024-02-20T23:21:06.981Z,73.32
2024-02-20T23:26:12.810Z,73.05
2024-02-20T23:31:18.916Z,73.33
2024-02-20T23:36:25.883Z,73.31
2024-02-20T23:41:31.594Z,73.41
2024-02-20T23:46:38.101Z,73.36
2024-02-20T23:51:44.714Z,73.25
2024-02-20T23:56:51.038Z,73.55
